Time;durP1;ratioP1;P1;durP2;ratioP2;P2;SDS_P1;SDS_P2;PMS_P1;PMS_P2;Temp;Humidity;BMP_temperature;BMP_pressure;BME280_temperature;BME280_humidity;BME280_pressure;Samples;Min_cycle;Max_cycle;Signal;HPM_P1;HPM_P2
2021/08/29 00:00:42;;;;;;;;;;;;;;;;;;;;;
2021/08/29 00:03:17;;;;;;;0.10;0.10;;;;;;;14.51;53.46;101424.50;4922585;29;20113;-75
2021/08/29 00:12:50;;;;;;;0.20;0.20;;;;;;;14.30;53.29;101413.41;4905726;29;20093;-76
2021/08/29 00:16:11;;;;;;;;;;;;;;;;;;;;;
2021/08/29 00:18:39;;;;;;;0.20;0.10;;;;;;;14.29;53.55;101428.25;4918672;29;20119;-76
2021/08/29 00:21:08;;;;;;;0.22;0.20;;;;;;;14.11;53.86;101408.34;4910184;29;20036;-78
2021/08/29 00:23:42;;;;;;;0.50;0.35;;;;;;;14.20;53.93;101430.69;4928126;29;20028;-77
2021/08/29 00:26:30;;;;;;;;;;;;;;;;;;;;;
2021/08/29 00:32:34;;;;;;;0.20;0.20;;;;;;;14.06;54.05;101430.31;4914065;29;20544;-77
2021/08/29 00:35:44;;;;;;;;;;;;;;;;;;;;;
2021/08/29 00:45:26;;;;;;;0.47;0.10;;;;;;;13.71;55.13;101411.63;4904805;29;20100;-76
2021/08/29 00:51:40;;;;;;;;;;;;;;;;;;;;;
2021/08/29 00:54:42;;;;;;;;;;;;;;;;;;;;;
2021/08/29 01:01:27;;;;;;;0.03;0.03;;;;;;;13.50;55.16;101407.91;4855638;29;20036;-76
2021/08/29 01:05:14;;;;;;;;;;;;;;;;;;;;;
2021/08/29 01:11:56;;;;;;;;;;;;;;;;;;;;;
2021/08/29 01:18:33;;;;;;;0.03;0.00;;;;;;;13.36;55.52;101413.84;4744908;29;20044;-77
2021/08/29 01:35:27;;;;;;;0.22;0.17;;;;;;;13.13;56.40;101405.88;4753537;29;20085;-78
2021/08/29 02:23:36;;;;;;;;;;;;;;;;;;;;;
2021/08/29 02:30:23;;;;;;;1.08;0.73;;;;;;;12.69;59.68;101404.88;4836235;29;20041;-74
2021/08/29 02:33:28;;;;;;;0.85;0.75;;;;;;;12.63;59.56;101408.63;4827823;29;20045;-73
2021/08/29 02:36:20;;;;;;;1.38;0.60;;;;;;;12.62;59.55;101406.97;4841495;29;20497;-74
2021/08/29 02:39:14;;;;;;;0.93;0.85;;;;;;;12.60;59.65;101403.66;4831401;29;20038;-73
2021/08/29 02:41:41;;;;;;;1.50;0.80;;;;;;;12.54;60.21;101405.50;4841843;29;20527;-75
2021/08/29 02:44:13;;;;;;;1.10;1.05;;;;;;;12.50;60.23;101407.09;4832522;29;20062;-74
2021/08/29 02:46:54;;;;;;;1.52;0.98;;;;;;;12.47;60.55;101404.03;4893130;29;20044;-74
2021/08/29 03:01:54;;;;;;;0.77;0.77;;;;;;;12.26;60.59;101403.75;4919136;29;20066;-74
2021/08/29 03:04:30;;;;;;;0.77;0.77;;;;;;;12.21;61.13;101395.47;4922459;29;20474;-73
2021/08/29 03:06:57;;;;;;;1.33;0.60;;;;;;;12.19;61.27;101392.13;4919434;29;20111;-74
2021/08/29 03:09:37;;;;;;;0.73;0.63;;;;;;;12.15;60.89;101377.28;4875401;29;20111;-74
2021/08/29 03:53:50;;;;;;;0.35;0.35;;;;;;;11.79;61.61;101343.88;4861997;29;20039;-75
2021/08/29 03:59:41;;;;;;;0.52;0.20;;;;;;;11.89;62.11;101368.69;4864308;29;20078;-75
2021/08/29 04:02:36;;;;;;;0.20;0.20;;;;;;;11.89;61.70;101363.19;4862362;29;20045;-73
2021/08/29 04:05:39;;;;;;;0.40;0.40;;;;;;;11.87;61.96;101362.59;4850155;29;20041;-75
2021/08/29 04:24:09;;;;;;;0.30;0.30;;;;;;;11.80;62.61;101351.84;4923291;29;20055;-77
2021/08/29 04:40:13;;;;;;;0.80;0.80;;;;;;;11.75;63.59;101353.66;4850691;29;20078;-77
2021/08/29 04:43:19;;;;;;;;;;;;;;;;;;;;;
2021/08/29 04:46:38;;;;;;;0.98;0.98;;;;;;;11.74;63.79;101346.50;4853874;29;20129;-75
2021/08/29 04:49:43;;;;;;;;;;;;;;;;;;;;;
2021/08/29 04:52:40;;;;;;;3.42;2.28;;;;;;;11.62;64.99;101328.28;4806436;29;20121;-77
2021/08/29 04:56:21;;;;;;;1.77;1.67;;;;;;;11.77;64.82;101354.22;4838490;29;20057;-77
2021/08/29 05:02:24;;;;;;;1.50;1.40;;;;;;;11.74;65.19;101347.38;4761541;29;20077;-75
2021/08/29 05:17:35;;;;;;;;;;;;;;;;;;;;;
2021/08/29 05:20:58;;;;;;;1.20;1.20;;;;;;;11.76;65.86;101344.38;4868757;29;20038;-80
2021/08/29 05:28:01;;;;;;;1.70;1.60;;;;;;;11.74;66.01;101349.25;4713590;30;20048;-76
2021/08/29 05:31:02;;;;;;;;;;;;;;;;;;;;;
2021/08/29 05:34:06;;;;;;;0.90;0.80;;;;;;;11.70;65.50;101347.03;4720847;30;20028;-76
2021/08/29 05:37:15;;;;;;;0.98;0.98;;;;;;;11.68;66.07;101349.19;4719831;30;20049;-77
2021/08/29 05:53:14;;;;;;;1.60;1.50;;;;;;;11.82;66.30;101357.88;4717026;30;20059;-76
2021/08/29 06:07:04;;;;;;;2.35;1.52;;;;;;;12.06;65.96;101360.44;4721220;30;20141;-74
2021/08/29 06:13:51;;;;;;;3.08;2.03;;;;;;;12.18;65.98;101360.34;4717204;30;20052;-74
2021/08/29 06:20:44;;;;;;;;;;;;;;;;;;;;;
2021/08/29 06:24:05;;;;;;;2.83;2.63;;;;;;;12.28;66.87;101330.31;4711118;30;20194;-73
2021/08/29 06:26:52;;;;;;;2.33;2.22;;;;;;;12.45;66.45;101352.16;4684156;30;20042;-75
2021/08/29 06:29:28;;;;;;;2.30;2.20;;;;;;;12.46;66.81;101336.56;4694030;30;20075;-72
2021/08/29 06:32:19;;;;;;;2.28;2.17;;;;;;;12.53;67.10;101342.66;4778954;29;20039;-73
2021/08/29 06:34:54;;;;;;;;;;;;;;;12.67;66.67;101343.91;4885431;29;20037;-75
2021/08/29 06:37:20;;;;;;;2.20;2.10;;;;;;;12.69;66.80;101330.78;4900079;29;19959;-73
2021/08/29 06:40:11;;;;;;;2.85;2.50;;;;;;;12.84;66.70;101341.06;4900670;29;20033;-74
2021/08/29 06:42:41;;;;;;;2.63;2.53;;;;;;;13.00;66.77;101347.53;4891566;29;20419;-74
2021/08/29 06:45:19;;;;;;;2.42;2.33;;;;;;;13.13;66.76;101346.28;4901557;29;20489;-74
2021/08/29 06:47:47;;;;;;;4.03;3.72;;;;;;;13.19;67.44;101333.44;4840305;29;20049;-73
2021/08/29 06:50:14;;;;;;;4.53;4.22;;;;;;;13.30;67.46;101340.66;4830455;29;20562;-74
2021/08/29 06:52:52;;;;;;;5.63;5.13;;;;;;;13.33;67.10;101342.06;4812231;29;20048;-73
2021/08/29 06:55:53;;;;;;;4.72;4.40;;;;;;;13.51;67.71;101346.38;4815515;29;20034;-74
2021/08/29 06:58:24;;;;;;;4.30;3.90;;;;;;;13.59;67.90;101332.13;4843868;29;20045;-75
2021/08/29 07:01:00;;;;;;;4.28;3.97;;;;;;;13.72;67.66;101339.91;4826960;29;20045;-72
2021/08/29 07:06:15;;;;;;;6.85;5.00;;;;;;;13.93;67.40;101338.13;4851041;29;20044;-73
2021/08/29 07:08:42;;;;;;;4.35;4.15;;;;;;;14.05;67.20;101342.59;4848340;29;20106;-76
2021/08/29 07:11:08;;;;;;;5.05;4.57;;;;;;;14.12;66.76;101346.75;4823769;29;20034;-76
2021/08/29 07:13:43;;;;;;;5.90;5.50;;;;;;;14.20;66.69;101331.66;4842144;29;20041;-76
2021/08/29 07:16:09;;;;;;;6.07;5.00;;;;;;;14.32;66.91;101340.53;4860865;29;20078;-76
2021/08/29 07:18:44;;;;;;;5.15;4.65;;;;;;;14.47;66.87;101331.50;4842210;29;20033;-75
2021/08/29 07:29:15;;;;;;;4.80;4.50;;;;;;;15.05;65.75;101324.19;4874020;24;20506;-74
2021/08/29 07:31:41;;;;;;;3.38;3.10;;;;;;;15.22;65.67;101334.97;4901287;29;20028;-74
2021/08/29 07:34:06;;;;;;;2.70;2.45;;;;;;;15.46;65.14;101336.06;4894912;29;20482;-74
2021/08/29 07:36:32;;;;;;;3.55;3.17;;;;;;;15.62;64.74;101334.09;4906876;29;20032;-77
2021/08/29 07:38:57;;;;;;;4.63;2.90;;;;;;;15.75;64.56;101343.72;4925502;29;20040;-78
2021/08/29 07:41:24;;;;;;;7.47;4.68;;;;;;;15.81;64.25;101334.38;4926285;29;20073;-76
2021/08/29 07:43:49;;;;;;;8.38;3.72;;;;;;;15.91;63.98;101341.78;4916670;29;20039;-76
2021/08/29 07:46:14;;;;;;;4.90;3.63;;;;;;;16.01;64.09;101343.69;4927699;29;20028;-78
2021/08/29 07:48:40;;;;;;;3.20;3.00;;;;;;;16.14;64.10;101339.53;4923674;29;20044;-77
2021/08/29 07:51:06;;;;;;;3.33;3.08;;;;;;;16.27;63.60;101340.88;4897864;29;20028;-75
2021/08/29 07:53:31;;;;;;;3.55;2.97;;;;;;;16.44;63.45;101348.78;4905423;29;20036;-76
2021/08/29 07:55:57;;;;;;;2.78;2.58;;;;;;;16.61;63.29;101342.91;4895256;29;20024;-76
2021/08/29 07:58:33;;;;;;;4.05;3.33;;;;;;;16.81;62.70;101351.06;4911198;29;20110;-76
2021/08/29 08:00:58;;;;;;;6.57;4.03;;;;;;;16.95;62.61;101350.47;4928873;29;20040;-76
2021/08/29 08:03:26;;;;;;;3.70;3.42;;;;;;;17.06;62.54;101352.88;4894290;29;20094;-76
2021/08/29 08:05:55;;;;;;;3.80;3.25;;;;;;;17.15;62.22;101353.09;4893198;29;20039;-75
2021/08/29 08:08:23;;;;;;;4.15;3.45;;;;;;;17.20;61.61;101349.44;4922648;29;20036;-75
2021/08/29 08:11:22;;;;;;;4.72;4.25;;;;;;;17.39;61.49;101352.34;4929136;29;20051;-77
2021/08/29 08:22:05;;;;;;;3.78;3.47;;;;;;;17.80;60.63;101363.03;4827605;29;20046;-77
2021/08/29 08:24:31;;;;;;;4.90;4.53;;;;;;;17.89;60.16;101360.47;4892593;29;20124;-77
2021/08/29 08:27:09;;;;;;;3.80;3.45;;;;;;;18.02;60.26;101353.41;4926661;29;20470;-76
2021/08/29 08:29:35;;;;;;;3.50;3.20;;;;;;;18.29;60.13;101361.94;4878139;29;20390;-75
2021/08/29 08:32:01;;;;;;;4.65;4.22;;;;;;;18.51;59.28;101366.13;4884407;29;20051;-77
2021/08/29 08:44:44;;;;;;;;;;;;;;;;;;;;;
2021/08/29 08:47:49;;;;;;;5.18;4.78;;;;;;;19.52;57.35;101361.31;4887407;29;20101;-77
2021/08/29 08:50:15;;;;;;;5.55;5.05;;;;;;;19.63;56.40;101361.97;4887088;29;20036;-76
2021/08/29 08:52:41;;;;;;;4.22;3.88;;;;;;;19.86;56.05;101371.28;4923336;29;20065;-74
2021/08/29 08:55:15;;;;;;;6.38;3.80;;;;;;;20.17;56.03;101370.69;4911662;29;20045;-75
2021/08/29 08:57:41;;;;;;;2.85;2.65;;;;;;;20.53;55.74;101361.59;4883741;29;20064;-74
2021/08/29 09:00:12;;;;;;;4.65;4.00;;;;;;;20.84;54.83;101352.66;4898780;29;20031;-74
2021/08/29 09:02:50;;;;;;;4.25;3.95;;;;;;;21.39;54.40;101363.53;4869503;29;20032;-74
2021/08/29 09:05:22;;;;;;;4.47;3.78;;;;;;;21.67;53.45;101365.38;4900768;29;20048;-72
2021/08/29 09:07:47;;;;;;;4.28;3.88;;;;;;;21.84;52.38;101364.66;4886195;29;20044;-72
2021/08/29 09:10:13;;;;;;;4.30;4.07;;;;;;;21.90;51.88;101366.16;4888194;29;20029;-73
2021/08/29 09:12:58;;;;;;;5.20;4.45;;;;;;;22.07;51.97;101369.00;4879065;29;20024;-74
2021/08/29 09:15:24;;;;;;;4.80;4.30;;;;;;;22.16;51.41;101365.44;4900630;29;20053;-74
2021/08/29 09:17:50;;;;;;;3.63;3.42;;;;;;;22.32;50.99;101363.88;4890471;29;20554;-73
2021/08/29 09:20:17;;;;;;;4.20;3.90;;;;;;;22.60;50.83;101358.84;4876175;29;20043;-75
2021/08/29 09:22:45;;;;;;;6.03;4.40;;;;;;;22.66;49.78;101356.72;4898791;29;20028;-73
2021/08/29 09:25:31;;;;;;;4.75;4.00;;;;;;;22.73;50.50;101365.44;4886776;29;20393;-74
2021/08/29 09:28:12;;;;;;;;;;;;;;;;;;;;;
2021/08/29 09:30:52;;;;;;;3.45;3.13;;;;;;;23.46;49.35;101361.19;4897189;29;20115;-75
2021/08/29 09:33:38;;;;;;;3.03;2.83;;;;;;;23.84;48.55;101350.06;4897851;29;20047;-76
2021/08/29 09:36:04;;;;;;;3.13;2.92;;;;;;;24.23;47.82;101352.91;4889034;29;20032;-75
2021/08/29 09:38:50;;;;;;;3.20;3.00;;;;;;;24.83;47.69;101350.09;4905348;29;20028;-78
2021/08/29 09:41:27;;;;;;;;;;;;;;;25.41;46.12;101364.25;4886374;29;20075;-80
2021/08/29 09:43:53;;;;;;;3.25;3.08;;;;;;;25.50;44.64;101362.16;4899847;29;20010;-74
2021/08/29 09:46:22;;;;;;;2.70;2.50;;;;;;;25.53;44.68;101346.66;4884357;29;20047;-73
2021/08/29 09:49:05;;;;;;;;;;;;;;;;;;;;;
2021/08/29 09:51:34;;;;;;;4.25;3.38;;;;;;;25.43;42.92;101361.91;4902695;29;20146;-78
2021/08/29 09:54:01;;;;;;;4.28;3.92;;;;;;;24.99;43.51;101347.50;4879814;29;20029;-76
2021/08/29 09:56:30;;;;;;;6.25;4.95;;;;;;;24.62;42.75;101359.28;4892665;29;20038;-75
2021/08/29 09:58:58;;;;;;;5.88;4.60;;;;;;;24.06;43.46;101348.22;4902554;29;20041;-75
2021/08/29 10:01:24;;;;;;;4.30;4.00;;;;;;;23.61;44.86;101352.31;4894094;29;20084;-75
2021/08/29 10:03:51;;;;;;;3.95;3.75;;;;;;;23.35;45.19;101361.53;4881831;29;20052;-75
2021/08/29 10:06:30;;;;;;;6.53;4.85;;;;;;;23.09;45.81;101366.28;4898961;29;20051;-74
2021/08/29 10:09:03;;;;;;;4.72;4.43;;;;;;;22.73;46.20;101354.28;4895318;29;20487;-75
2021/08/29 10:11:53;;;;;;;5.50;5.05;;;;;;;22.52;46.66;101347.72;4878908;29;20115;-75
2021/08/29 10:14:38;;;;;;;4.57;3.28;;;;;;;22.60;46.76;101346.91;4900579;29;20096;-74
2021/08/29 10:17:06;;;;;;;;;;;;;;;22.99;46.93;101359.06;4898230;29;20017;-74
2021/08/29 10:19:33;;;;;;;4.22;3.92;;;;;;;23.07;46.61;101366.63;4870937;29;20006;-74
2021/08/29 10:22:00;;;;;;;4.80;4.40;;;;;;;23.10;46.53;101371.56;4881389;29;20036;-74
2021/08/29 10:24:31;;;;;;;5.05;4.65;;;;;;;23.15;46.23;101370.59;4881924;29;20132;-74
2021/08/29 10:27:03;;;;;;;4.68;4.47;;;;;;;23.26;46.41;101373.84;4886317;29;20049;-74
2021/08/29 10:29:34;;;;;;;4.65;4.25;;;;;;;23.24;46.02;101367.78;4896533;29;20092;-74
2021/08/29 10:32:21;;;;;;;4.93;4.57;;;;;;;23.20;46.13;101369.59;4904046;29;20439;-74
2021/08/29 10:34:47;;;;;;;6.60;5.75;;;;;;;23.17;46.03;101366.31;4906062;29;20031;-74
2021/08/29 10:37:13;;;;;;;10.90;6.72;;;;;;;23.37;46.16;101369.56;4910664;29;20039;-74
2021/08/29 10:39:39;;;;;;;6.32;4.63;;;;;;;23.68;45.61;101371.31;4896490;29;20052;-74
2021/08/29 10:42:08;;;;;;;4.35;4.05;;;;;;;23.98;45.52;101360.25;4892668;29;20475;-76
2021/08/29 10:44:39;;;;;;;5.07;4.63;;;;;;;24.42;44.84;101369.25;4897961;29;20431;-74
2021/08/29 10:47:07;;;;;;;4.55;4.22;;;;;;;24.79;43.89;101355.53;4905642;29;20029;-73
2021/08/29 10:49:37;;;;;;;4.28;3.88;;;;;;;25.34;44.37;101372.38;4898177;29;20040;-73
2021/08/29 10:52:14;;;;;;;5.50;3.45;;;;;;;25.97;42.56;101358.19;4901799;29;20131;-74
2021/08/29 10:55:05;;;;;;;5.53;3.50;;;;;;;26.34;41.65;101365.81;4901068;29;20033;-73
2021/08/29 10:57:33;;;;;;;5.28;4.38;;;;;;;26.52;40.84;101367.19;4893445;29;20028;-75
2021/08/29 11:00:24;;;;;;;3.47;3.17;;;;;;;26.72;40.96;101361.81;5049299;28;20404;-76
2021/08/29 11:03:05;;;;;;;;;;;;;;;;;;;;;
2021/08/29 11:05:34;;;;;;;3.83;3.58;;;;;;;27.41;39.41;101356.19;5055056;28;20473;-74
2021/08/29 11:08:31;;;;;;;4.60;2.75;;;;;;;28.12;39.19;101345.22;5057525;28;20056;-75
2021/08/29 11:10:56;;;;;;;3.17;2.83;;;;;;;28.96;38.05;101349.56;5059482;28;20012;-72
2021/08/29 11:13:28;;;;;;;3.45;3.15;;;;;;;29.64;36.07;101355.72;5057396;28;20025;-73
2021/08/29 11:16:09;;;;;;;6.28;3.28;;;;;;;29.54;34.94;101359.16;5049117;28;20095;-75
2021/08/29 11:19:04;;;;;;;5.05;4.60;;;;;;;29.29;34.23;101351.03;5047834;28;20030;-76
2021/08/29 11:25:25;;;;;;;4.35;4.10;;;;;;;28.59;34.62;101347.13;5047924;28;20158;-76
2021/08/29 11:31:09;;;;;;;5.07;4.80;;;;;;;28.01;36.01;101344.97;5057501;28;20395;-74
2021/08/29 11:37:24;;;;;;;4.57;4.03;;;;;;;28.52;34.46;101346.97;5053698;28;20065;-73
2021/08/29 11:40:22;;;;;;;;;;;;;;;;;;;;;
2021/08/29 15:04:32;;;;;;;3.08;2.97;;;;;;;29.95;23.87;101224.22;4854650;23;20022;-77
2021/08/29 15:06:58;;;;;;;4.53;4.13;;;;;;;31.07;24.13;101243.38;4997880;28;20633;-77
2021/08/29 15:09:23;;;;;;;2.13;2.03;;;;;;;31.80;22.33;101234.34;4978644;28;20034;-74
2021/08/29 15:11:52;;;;;;;1.58;1.48;;;;;;;31.43;21.88;101232.41;4964997;28;20030;-76
2021/08/29 15:14:23;;;;;;;2.20;1.17;;;;;;;30.81;22.32;101225.34;4961603;28;20038;-75
2021/08/29 15:44:11;;;;;;;0.63;0.32;;;;;;;29.18;25.90;101220.47;4793957;29;20041;-74
2021/08/29 15:46:39;;;;;;;1.15;0.52;;;;;;;29.54;25.29;101227.56;4831268;29;20038;-74
2021/08/29 15:50:05;;;;;;;;;;;;;;;;;;;;;
2021/08/29 15:54:37;;;;;;;0.73;0.52;;;;;;;29.14;24.88;101209.13;4810845;29;20061;-75
2021/08/29 15:57:01;;;;;;;1.67;0.35;;;;;;;28.29;25.69;101209.84;4810467;29;20038;-74
2021/08/29 15:59:39;;;;;;;;;;;;;;;;;;;;;
2021/08/29 16:02:05;;;;;;;0.82;0.40;;;;;;;26.98;27.11;101210.69;4979629;28;20122;-80
2021/08/29 16:04:36;;;;;;;0.95;0.50;;;;;;;26.52;28.06;101218.56;4995252;28;20039;-75
2021/08/29 16:07:11;;;;;;;2.13;0.50;;;;;;;26.18;28.60;101223.56;4964923;28;20026;-77
2021/08/29 16:09:57;;;;;;;;;;;;;;;;;;;;;
2021/08/29 16:12:52;;;;;;;;;;;;;;;;;;;;;
2021/08/29 16:19:07;;;;;;;1.20;0.80;;;;;;;25.71;29.76;101196.03;4922690;29;20036;-74
2021/08/29 16:22:38;;;;;;;;;;;;;;;;;;;;;
2021/08/29 16:25:30;;;;;;;1.30;1.20;;;;;;;26.98;28.90;101191.03;4887992;29;20120;-76
2021/08/29 16:28:35;;;;;;;;;;;;;;;;;;;;;
2021/08/29 16:35:15;;;;;;;;;;;;;;;;;;;;;
2021/08/29 16:45:27;;;;;;;0.52;0.50;;;;;;;33.99;22.65;101201.34;4805987;29;20459;-74
2021/08/29 16:48:19;;;;;;;0.70;0.70;;;;;;;34.59;22.15;101214.53;4796517;29;20047;-75
2021/08/29 16:51:50;;;;;;;;;;;;;;;;;;;;;
2021/08/29 16:54:35;;;;;;;;;;;;;;;;;;;;;
2021/08/29 16:58:40;;;;;;;2.45;0.68;;;;;;;33.72;22.32;101201.81;4878016;29;20174;-75
2021/08/29 17:00:44;;;;;;;;;;;;;;;;;;;;;
2021/08/29 17:03:54;;;;;;;;;;;;;;;;;;;;;
2021/08/29 17:06:48;;;;;;;0.60;0.60;;;;;;;34.03;21.94;101222.03;4947233;28;20206;-77
2021/08/29 17:09:13;;;;;;;0.65;0.60;;;;;;;34.05;21.92;101202.56;4988993;28;20054;-75
2021/08/29 17:15:25;;;;;;;1.33;0.82;;;;;;;34.11;21.73;101209.41;4957472;28;20132;-76
2021/08/29 17:18:14;;;;;;;0.60;0.60;;;;;;;33.95;21.62;101215.53;4996337;28;20499;-76
2021/08/29 17:20:49;;;;;;;0.93;0.85;;;;;;;33.70;22.07;101204.22;4969749;28;20046;-75
2021/08/29 17:23:46;;;;;;;1.48;0.98;;;;;;;33.58;21.87;101214.75;4995226;28;20030;-75
2021/08/29 17:26:39;;;;;;;3.17;0.60;;;;;;;33.53;22.38;101229.34;4996621;28;20030;-73
2021/08/29 17:29:28;;;;;;;1.10;0.60;;;;;;;32.89;22.15;101213.09;4983673;28;20046;-77
2021/08/29 17:32:19;;;;;;;1.30;0.77;;;;;;;31.48;22.72;101195.34;4965371;28;20066;-74
2021/08/29 17:34:59;;;;;;;0.65;0.50;;;;;;;30.35;23.87;101205.81;4997568;28;20038;-73
2021/08/29 17:37:51;;;;;;;1.67;0.75;;;;;;;29.43;24.98;101221.72;4983650;28;20034;-76
2021/08/29 17:40:55;;;;;;;;;;;;;;;;;;;;;
2021/08/29 17:43:56;;;;;;;;;;;;;;;;;;;;;
2021/08/29 17:46:24;;;;;;;0.60;0.60;;;;;;;26.96;28.66;101207.41;4992772;28;20430;-73
2021/08/29 17:49:35;;;;;;;1.08;0.70;;;;;;;27.18;29.12;101208.78;4997476;28;20031;-75
2021/08/29 17:52:16;;;;;;;1.77;0.93;;;;;;;27.26;28.81;101192.94;4884297;29;20068;-74
2021/08/29 17:55:32;;;;;;;0.90;0.90;;;;;;;27.36;28.65;101191.59;4896526;29;20063;-74
2021/08/29 17:58:29;;;;;;;0.73;0.73;;;;;;;27.36;28.72;101202.03;4912087;29;20047;-77
2021/08/29 18:01:34;;;;;;;0.98;0.88;;;;;;;26.77;28.37;101190.44;4929744;29;20032;-78
2021/08/29 18:04:02;;;;;;;1.60;0.88;;;;;;;26.16;30.36;101214.69;4922486;29;20184;-76
2021/08/29 18:06:55;;;;;;;0.45;0.45;;;;;;;25.67;30.96;101204.34;4921251;29;20040;-78
2021/08/29 18:13:20;;;;;;;0.80;0.60;;;;;;;25.41;31.73;101197.09;4999795;28;20447;-78
2021/08/29 18:26:46;;;;;;;;;;;;;;;;;;;;;
2021/08/29 18:33:00;;;;;;;1.27;0.82;;;;;;;22.51;34.35;101203.94;4952779;28;20061;-73
2021/08/29 18:35:25;;;;;;;0.50;0.50;;;;;;;22.28;34.52;101223.56;4995788;28;20104;-75
2021/08/29 18:37:51;;;;;;;1.40;0.60;;;;;;;21.89;35.43;101212.22;4997931;28;20055;-75
2021/08/29 18:40:17;;;;;;;0.50;0.40;;;;;;;21.59;35.23;101213.91;4998677;28;20019;-75
2021/08/29 18:42:42;;;;;;;0.85;0.68;;;;;;;21.39;35.82;101221.66;4967116;28;20038;-74
2021/08/29 18:45:08;;;;;;;0.30;0.30;;;;;;;21.14;36.84;101214.00;4991425;28;20468;-74
2021/08/29 18:47:34;;;;;;;0.40;0.40;;;;;;;20.96;37.23;101213.91;4993724;28;20133;-73
2021/08/29 18:49:59;;;;;;;0.55;0.55;;;;;;;20.75;37.25;101214.41;4997934;28;20061;-75
2021/08/29 18:52:29;;;;;;;1.25;0.60;;;;;;;20.57;37.12;101215.38;4993353;28;20022;-74
2021/08/29 18:54:55;;;;;;;0.70;0.70;;;;;;;20.35;37.57;101217.00;5000102;28;20143;-74
2021/08/29 18:57:21;;;;;;;1.70;1.13;;;;;;;20.26;37.91;101227.22;4968690;28;20065;-74
2021/08/29 18:59:48;;;;;;;2.53;1.40;;;;;;;20.03;37.90;101227.16;5002791;28;20061;-74
2021/08/29 19:02:15;;;;;;;1.90;1.75;;;;;;;19.85;38.99;101236.44;4989041;28;20026;-73
2021/08/29 19:04:48;;;;;;;2.60;2.40;;;;;;;19.63;38.96;101235.16;4990797;28;20042;-73
2021/08/29 19:07:14;;;;;;;3.13;2.63;;;;;;;19.44;39.56;101238.03;4956712;28;20037;-74
2021/08/29 19:09:39;;;;;;;2.92;2.55;;;;;;;19.28;40.01;101234.72;4992012;28;20026;-74
2021/08/29 19:12:05;;;;;;;3.20;2.25;;;;;;;19.13;40.16;101237.78;4995400;28;20448;-74
2021/08/29 19:14:31;;;;;;;4.07;2.63;;;;;;;19.00;40.15;101233.84;4969354;28;20400;-74
2021/08/29 19:16:56;;;;;;;5.97;3.15;;;;;;;18.88;41.31;101242.63;4979321;28;20080;-71
2021/08/29 19:19:22;;;;;;;2.67;2.47;;;;;;;18.77;41.02;101246.66;4994543;28;20031;-73
2021/08/29 19:21:47;;;;;;;1.85;1.75;;;;;;;18.66;41.27;101241.28;4997636;28;20023;-72
2021/08/29 19:24:13;;;;;;;3.33;2.20;;;;;;;18.59;41.65;101243.59;4964102;28;20030;-72
2021/08/29 19:26:38;;;;;;;3.05;2.85;;;;;;;18.53;42.32;101242.03;4979313;28;20077;-72
2021/08/29 19:29:04;;;;;;;3.53;3.08;;;;;;;18.48;43.02;101244.88;4993164;28;20400;-73
2021/08/29 19:31:30;;;;;;;4.20;2.85;;;;;;;18.43;42.76;101242.19;5001044;28;20036;-73
2021/08/29 19:33:55;;;;;;;2.55;2.13;;;;;;;18.39;42.64;101247.47;4982078;28;20050;-74
2021/08/29 19:36:21;;;;;;;2.35;1.85;;;;;;;18.31;42.87;101240.69;4994796;28;20026;-73
2021/08/29 19:38:47;;;;;;;2.80;2.20;;;;;;;18.27;42.80;101241.56;4996451;28;20034;-73
2021/08/29 19:41:13;;;;;;;2.33;2.10;;;;;;;18.26;42.44;101237.97;4999795;28;20050;-71
2021/08/29 19:43:39;;;;;;;1.80;1.70;;;;;;;18.29;42.13;101245.66;4985005;28;20116;-73
2021/08/29 19:46:04;;;;;;;2.03;1.65;;;;;;;18.34;42.42;101238.41;4997735;28;20030;-72
2021/08/29 19:48:30;;;;;;;1.42;1.33;;;;;;;18.41;42.50;101247.19;5000048;28;20571;-72
2021/08/29 19:50:56;;;;;;;1.85;1.20;;;;;;;18.45;42.45;101246.28;4963465;28;20034;-72
2021/08/29 19:53:21;;;;;;;1.52;1.42;;;;;;;18.51;42.39;101249.00;4998835;28;20105;-73
2021/08/29 19:55:47;;;;;;;0.80;0.80;;;;;;;18.53;41.86;101247.56;4994409;28;20038;-72
2021/08/29 19:58:13;;;;;;;1.33;1.25;;;;;;;18.60;42.05;101253.56;4998790;28;20046;-74
2021/08/29 20:00:38;;;;;;;1.00;0.90;;;;;;;18.65;42.13;101263.72;4979932;28;20267;-73
2021/08/29 20:03:04;;;;;;;0.75;0.70;;;;;;;18.67;41.64;101259.53;4996930;28;20048;-73
2021/08/29 20:05:29;;;;;;;1.00;1.00;;;;;;;18.70;41.95;101262.81;4988227;28;20125;-72
2021/08/29 20:07:56;;;;;;;1.58;1.48;;;;;;;18.75;42.13;101259.97;4992888;28;20062;-74
2021/08/29 20:10:23;;;;;;;2.80;2.05;;;;;;;18.77;41.93;101257.72;5001426;28;20507;-72
2021/08/29 20:12:48;;;;;;;2.40;2.17;;;;;;;18.78;42.41;101259.38;4994050;28;20038;-72
2021/08/29 20:15:14;;;;;;;3.10;2.83;;;;;;;18.81;42.42;101258.78;4982607;28;20042;-72
2021/08/29 20:17:40;;;;;;;4.97;4.68;;;;;;;18.82;42.53;101263.19;4981566;28;20030;-72
2021/08/29 20:20:07;;;;;;;8.75;4.88;;;;;;;18.81;42.65;101258.78;4994590;28;20069;-71
2021/08/29 20:22:32;;;;;;;4.65;4.18;;;;;;;18.80;42.52;101269.03;4991644;28;21215;-73
2021/08/29 20:24:58;;;;;;;3.90;3.60;;;;;;;18.78;43.01;101270.47;4960605;28;20116;-73
2021/08/29 20:27:23;;;;;;;3.30;3.10;;;;;;;18.80;42.84;101279.28;4975069;28;20047;-72
2021/08/29 20:29:49;;;;;;;1.73;1.52;;;;;;;18.79;42.65;101283.19;4979819;28;20022;-72
2021/08/29 20:32:14;;;;;;;1.00;1.00;;;;;;;18.77;42.89;101274.34;4978383;28;20030;-73
2021/08/29 20:34:40;;;;;;;0.88;0.70;;;;;;;18.79;42.70;101277.63;4978799;28;20077;-73
2021/08/29 20:37:05;;;;;;;0.60;0.52;;;;;;;18.72;43.19;101269.72;4973749;28;20113;-73
2021/08/29 20:39:31;;;;;;;0.50;0.50;;;;;;;18.76;43.15;101275.47;4976954;28;20101;-73
2021/08/29 20:41:56;;;;;;;0.30;0.30;;;;;;;18.77;43.00;101279.91;4969254;28;20035;-74
2021/08/29 20:44:22;;;;;;;0.35;0.35;;;;;;;18.75;42.91;101274.66;4976485;28;20027;-72
2021/08/29 20:46:47;;;;;;;0.28;0.28;;;;;;;18.78;42.68;101278.78;5009300;28;20023;-72
2021/08/29 20:49:13;;;;;;;0.47;0.30;;;;;;;18.76;42.93;101281.00;4977887;28;20062;-73
2021/08/29 20:51:39;;;;;;;0.25;0.25;;;;;;;18.75;43.35;101277.44;4977351;28;20027;-72
2021/08/29 20:54:06;;;;;;;0.32;0.32;;;;;;;18.74;43.47;101280.50;4979668;28;20046;-72
2021/08/29 20:56:31;;;;;;;0.55;0.30;;;;;;;18.72;43.11;101277.19;4978346;28;20038;-72
2021/08/29 20:58:58;;;;;;;4.47;0.47;;;;;;;18.72;43.76;101282.72;4978099;28;20022;-72
2021/08/29 21:01:28;;;;;;;0.30;0.30;;;;;;;18.70;43.90;101285.00;4969790;28;20038;-72
2021/08/29 21:03:59;;;;;;;0.30;0.30;;;;;;;18.63;43.69;101274.28;4975672;28;20026;-72
2021/08/29 21:06:29;;;;;;;0.50;0.25;;;;;;;18.59;43.78;101274.06;4975737;28;20342;-74
2021/08/29 21:08:56;;;;;;;0.28;0.28;;;;;;;18.58;44.08;101275.19;4976708;28;20038;-73
2021/08/29 21:11:23;;;;;;;0.52;0.40;;;;;;;18.58;44.31;101277.94;4961407;28;20054;-74
2021/08/29 21:13:49;;;;;;;0.40;0.30;;;;;;;18.54;44.21;101282.44;4992729;28;20093;-75
2021/08/29 21:16:16;;;;;;;0.40;0.40;;;;;;;18.51;44.80;101271.97;4968376;28;20030;-75
2021/08/29 21:26:46;;;;;;;0.52;0.52;;;;;;;18.27;46.43;101272.84;4973173;28;20051;-73
2021/08/29 21:29:12;;;;;;;1.05;0.75;;;;;;;18.23;46.62;101282.03;4977581;28;20027;-74
2021/08/29 21:31:37;;;;;;;0.52;0.52;;;;;;;18.20;46.61;101283.44;4961241;28;20027;-73
2021/08/29 21:34:03;;;;;;;0.77;0.63;;;;;;;18.16;47.22;101282.41;4978688;28;20199;-74
2021/08/29 21:36:29;;;;;;;0.65;0.63;;;;;;;18.13;46.87;101283.00;4975371;28;20074;-75
2021/08/29 21:38:57;;;;;;;1.83;0.60;;;;;;;18.12;47.10;101282.19;4958947;28;20033;-73
2021/08/29 21:41:44;;;;;;;1.15;1.08;;;;;;;18.05;47.56;101264.28;4959618;28;20563;-74
2021/08/29 21:44:55;;;;;;;3.60;1.00;;;;;;;18.08;46.91;101281.13;4961289;28;20477;-77
2021/08/29 21:47:24;;;;;;;1.60;1.50;;;;;;;17.96;47.77;101275.19;5475687;23;20043;-76
2021/08/29 21:49:49;;;;;;;2.78;1.80;;;;;;;17.90;47.74;101274.44;4983049;28;20030;-79
2021/08/29 21:52:18;;;;;;;1.05;0.98;;;;;;;17.84;47.84;101278.31;4985100;28;20461;-77
2021/08/29 21:58:18;;;;;;;;;;;;;;;;;;;;;
2021/08/29 22:03:32;;;;;;;1.38;1.27;;;;;;;17.40;48.69;101277.41;4994695;28;20105;-76
2021/08/29 22:09:40;;;;;;;0.90;0.90;;;;;;;17.08;48.32;101264.16;5013138;28;20036;-75
2021/08/29 22:19:02;;;;;;;1.02;0.98;;;;;;;16.75;49.14;101284.00;4992686;28;20026;-74
2021/08/29 22:21:47;;;;;;;;;;;;;;;;;;;;;
2021/08/29 22:24:15;;;;;;;1.00;0.93;;;;;;;16.59;49.61;101285.22;5020476;28;20057;-77
2021/08/29 22:27:35;;;;;;;1.17;0.70;;;;;;;16.66;49.99;101290.41;5005183;28;20068;-75